X  Κλείσε Στοιχεία METAR Αεροπλοίας     LGBL Nea Anchialos National Airport
Θερμοκρασία
37°C Θερμοκρασία
15°C Σημείο Δρόσου
27% Υγρασία



Ανεμος
13 KM/H
8 MPH
4 M/S
7 KTS



130°
NA
Τρέχουσες Συνθήκες

Αίθριος Αίθριος
Πίεση 1010.84 (hPa) - 29.85 (inHg)
Ορατότητα 6 (μίλι) - 9.7 (km)
Aεροδρόμιο
Κωδικός Αεροδρομίου LGBL

Τοποθεσία: Nea Anchialos National Airport
Απόσταση: 74 (km)

Metar:
LGBL 171550Z 13007KT CAVOK 37/15 Q1011

ώρα: 17-07-2024 18:50 EEST